sensor_id;sensor_type;location;lat;lon;timestamp;P1;durP1;ratioP1;P2;durP2;ratioP2
36001;SDS011;22070;50.922;5.430;2023-08-12T00:01:31;27.90;;;15.43;;
36001;SDS011;22070;50.922;5.430;2023-08-12T00:03:57;26.47;;;15.70;;
36001;SDS011;22070;50.922;5.430;2023-08-12T00:06:22;30.57;;;16.37;;
36001;SDS011;22070;50.922;5.430;2023-08-12T00:08:48;27.43;;;15.47;;
36001;SDS011;22070;50.922;5.430;2023-08-12T00:11:14;26.40;;;15.47;;
36001;SDS011;22070;50.922;5.430;2023-08-12T00:13:39;26.43;;;15.23;;
36001;SDS011;22070;50.922;5.430;2023-08-12T00:16:05;26.63;;;14.97;;
36001;SDS011;22070;50.922;5.430;2023-08-12T00:18:31;26.00;;;15.57;;
36001;SDS011;22070;50.922;5.430;2023-08-12T00:21:03;22.77;;;15.48;;
36001;SDS011;22070;50.922;5.430;2023-08-12T00:23:36;27.55;;;15.63;;
36001;SDS011;22070;50.922;5.430;2023-08-12T00:26:03;26.77;;;15.73;;
36001;SDS011;22070;50.922;5.430;2023-08-12T00:28:28;28.10;;;15.67;;
36001;SDS011;22070;50.922;5.430;2023-08-12T00:30:54;25.63;;;16.17;;
36001;SDS011;22070;50.922;5.430;2023-08-12T00:33:20;26.23;;;16.30;;
36001;SDS011;22070;50.922;5.430;2023-08-12T00:35:45;27.27;;;15.43;;
36001;SDS011;22070;50.922;5.430;2023-08-12T00:38:11;30.17;;;15.77;;
36001;SDS011;22070;50.922;5.430;2023-08-12T00:40:37;29.73;;;16.77;;
36001;SDS011;22070;50.922;5.430;2023-08-12T00:43:03;21.93;;;15.13;;
36001;SDS011;22070;50.922;5.430;2023-08-12T00:45:28;26.03;;;14.50;;
36001;SDS011;22070;50.922;5.430;2023-08-12T00:47:54;25.50;;;15.63;;
36001;SDS011;22070;50.922;5.430;2023-08-12T00:50:20;22.33;;;14.30;;
36001;SDS011;22070;50.922;5.430;2023-08-12T00:52:47;23.70;;;14.43;;
36001;SDS011;22070;50.922;5.430;2023-08-12T00:55:13;23.55;;;15.13;;
36001;SDS011;22070;50.922;5.430;2023-08-12T00:57:39;25.98;;;14.60;;
36001;SDS011;22070;50.922;5.430;2023-08-12T01:00:05;29.43;;;15.30;;
36001;SDS011;22070;50.922;5.430;2023-08-12T01:02:33;21.02;;;14.70;;
36001;SDS011;22070;50.922;5.430;2023-08-12T01:04:58;22.83;;;15.47;;
36001;SDS011;22070;50.922;5.430;2023-08-12T01:07:24;22.93;;;14.47;;
36001;SDS011;22070;50.922;5.430;2023-08-12T01:09:50;20.77;;;13.97;;
36001;SDS011;22070;50.922;5.430;2023-08-12T01:12:36;18.37;;;13.37;;
36001;SDS011;22070;50.922;5.430;2023-08-12T01:15:16;25.25;;;14.48;;
36001;SDS011;22070;50.922;5.430;2023-08-12T01:17:48;22.95;;;13.65;;
36001;SDS011;22070;50.922;5.430;2023-08-12T01:20:17;24.05;;;12.98;;
36001;SDS011;22070;50.922;5.430;2023-08-12T01:22:59;17.10;;;13.35;;
36001;SDS011;22070;50.922;5.430;2023-08-12T01:25:34;23.38;;;13.40;;
36001;SDS011;22070;50.922;5.430;2023-08-12T01:28:00;20.77;;;13.67;;
36001;SDS011;22070;50.922;5.430;2023-08-12T01:30:26;21.63;;;13.90;;
36001;SDS011;22070;50.922;5.430;2023-08-12T01:38:05;21.95;;;14.98;;
36001;SDS011;22070;50.922;5.430;2023-08-12T01:40:33;16.58;;;12.32;;
36001;SDS011;22070;50.922;5.430;2023-08-12T01:43:00;17.33;;;13.23;;
36001;SDS011;22070;50.922;5.430;2023-08-12T01:45:30;23.48;;;14.13;;
36001;SDS011;22070;50.922;5.430;2023-08-12T01:47:57;26.27;;;14.35;;
36001;SDS011;22070;50.922;5.430;2023-08-12T01:50:22;23.93;;;14.80;;
36001;SDS011;22070;50.922;5.430;2023-08-12T01:52:48;25.03;;;13.97;;
36001;SDS011;22070;50.922;5.430;2023-08-12T01:57:40;18.63;;;13.45;;
36001;SDS011;22070;50.922;5.430;2023-08-12T02:00:06;16.53;;;12.63;;
36001;SDS011;22070;50.922;5.430;2023-08-12T02:04:58;22.55;;;14.25;;
36001;SDS011;22070;50.922;5.430;2023-08-12T02:07:24;18.90;;;13.47;;
36001;SDS011;22070;50.922;5.430;2023-08-12T02:09:50;25.53;;;14.40;;
36001;SDS011;22070;50.922;5.430;2023-08-12T02:12:15;18.70;;;14.03;;
36001;SDS011;22070;50.922;5.430;2023-08-12T02:14:41;25.83;;;14.33;;
36001;SDS011;22070;50.922;5.430;2023-08-12T02:17:07;19.87;;;14.10;;
36001;SDS011;22070;50.922;5.430;2023-08-12T02:19:33;29.60;;;15.77;;
36001;SDS011;22070;50.922;5.430;2023-08-12T02:21:59;23.40;;;15.65;;
36001;SDS011;22070;50.922;5.430;2023-08-12T02:24:26;24.15;;;15.52;;
36001;SDS011;22070;50.922;5.430;2023-08-12T02:26:52;25.93;;;15.77;;
36001;SDS011;22070;50.922;5.430;2023-08-12T02:29:18;26.50;;;16.35;;
36001;SDS011;22070;50.922;5.430;2023-08-12T02:31:44;30.30;;;16.73;;
36001;SDS011;22070;50.922;5.430;2023-08-12T02:34:10;28.40;;;16.83;;
36001;SDS011;22070;50.922;5.430;2023-08-12T02:36:35;26.30;;;16.20;;
36001;SDS011;22070;50.922;5.430;2023-08-12T02:39:01;30.23;;;16.90;;
36001;SDS011;22070;50.922;5.430;2023-08-12T02:41:27;25.37;;;17.60;;
36001;SDS011;22070;50.922;5.430;2023-08-12T02:43:53;27.00;;;17.30;;
36001;SDS011;22070;50.922;5.430;2023-08-12T02:46:18;25.70;;;16.83;;
36001;SDS011;22070;50.922;5.430;2023-08-12T02:48:44;43.83;;;18.10;;
36001;SDS011;22070;50.922;5.430;2023-08-12T02:51:12;28.10;;;17.50;;
36001;SDS011;22070;50.922;5.430;2023-08-12T02:53:38;24.50;;;17.13;;
36001;SDS011;22070;50.922;5.430;2023-08-12T02:56:04;26.27;;;17.37;;
36001;SDS011;22070;50.922;5.430;2023-08-12T02:58:29;27.03;;;16.63;;
36001;SDS011;22070;50.922;5.430;2023-08-12T03:00:55;28.83;;;17.43;;
36001;SDS011;22070;50.922;5.430;2023-08-12T03:03:21;23.77;;;17.17;;
36001;SDS011;22070;50.922;5.430;2023-08-12T03:05:47;29.87;;;17.97;;
36001;SDS011;22070;50.922;5.430;2023-08-12T03:08:13;27.33;;;17.27;;
36001;SDS011;22070;50.922;5.430;2023-08-12T03:10:39;26.27;;;17.20;;
36001;SDS011;22070;50.922;5.430;2023-08-12T03:13:06;23.08;;;16.38;;
36001;SDS011;22070;50.922;5.430;2023-08-12T03:15:31;24.60;;;17.97;;
36001;SDS011;22070;50.922;5.430;2023-08-12T03:17:57;28.00;;;16.97;;
36001;SDS011;22070;50.922;5.430;2023-08-12T03:20:23;27.00;;;17.27;;
36001;SDS011;22070;50.922;5.430;2023-08-12T03:22:48;25.37;;;17.30;;
36001;SDS011;22070;50.922;5.430;2023-08-12T03:25:14;31.03;;;18.33;;
36001;SDS011;22070;50.922;5.430;2023-08-12T03:27:41;28.97;;;18.37;;
36001;SDS011;22070;50.922;5.430;2023-08-12T03:30:07;27.98;;;18.50;;
36001;SDS011;22070;50.922;5.430;2023-08-12T03:32:33;27.23;;;18.17;;
36001;SDS011;22070;50.922;5.430;2023-08-12T03:34:59;33.83;;;18.83;;
36001;SDS011;22070;50.922;5.430;2023-08-12T03:37:25;25.30;;;17.47;;
36001;SDS011;22070;50.922;5.430;2023-08-12T03:39:51;30.30;;;18.20;;
36001;SDS011;22070;50.922;5.430;2023-08-12T03:42:16;27.67;;;17.60;;
36001;SDS011;22070;50.922;5.430;2023-08-12T03:44:43;30.75;;;17.60;;
36001;SDS011;22070;50.922;5.430;2023-08-12T03:47:09;27.73;;;17.70;;
36001;SDS011;22070;50.922;5.430;2023-08-12T03:49:35;29.92;;;17.58;;
36001;SDS011;22070;50.922;5.430;2023-08-12T03:52:01;27.27;;;17.90;;
36001;SDS011;22070;50.922;5.430;2023-08-12T03:54:28;28.10;;;17.77;;
36001;SDS011;22070;50.922;5.430;2023-08-12T03:56:53;32.80;;;18.73;;
36001;SDS011;22070;50.922;5.430;2023-08-12T03:59:19;26.37;;;17.37;;
36001;SDS011;22070;50.922;5.430;2023-08-12T04:01:45;31.80;;;18.43;;
36001;SDS011;22070;50.922;5.430;2023-08-12T04:04:10;30.90;;;19.27;;
36001;SDS011;22070;50.922;5.430;2023-08-12T04:06:36;33.87;;;19.00;;
36001;SDS011;22070;50.922;5.430;2023-08-12T04:09:02;31.45;;;19.30;;
36001;SDS011;22070;50.922;5.430;2023-08-12T04:11:29;31.65;;;19.02;;
36001;SDS011;22070;50.922;5.430;2023-08-12T04:13:54;28.57;;;19.17;;
36001;SDS011;22070;50.922;5.430;2023-08-12T04:16:20;33.07;;;19.83;;
36001;SDS011;22070;50.922;5.430;2023-08-12T04:18:46;31.10;;;19.70;;
36001;SDS011;22070;50.922;5.430;2023-08-12T04:21:13;39.92;;;20.20;;
36001;SDS011;22070;50.922;5.430;2023-08-12T04:23:39;32.20;;;20.73;;
36001;SDS011;22070;50.922;5.430;2023-08-12T04:26:05;22.83;;;14.10;;
36001;SDS011;22070;50.922;5.430;2023-08-12T04:28:30;33.30;;;21.33;;
36001;SDS011;22070;50.922;5.430;2023-08-12T04:30:56;38.70;;;20.80;;
36001;SDS011;22070;50.922;5.430;2023-08-12T04:33:22;29.13;;;20.70;;
36001;SDS011;22070;50.922;5.430;2023-08-12T04:38:14;30.58;;;19.02;;
36001;SDS011;22070;50.922;5.430;2023-08-12T04:40:40;32.67;;;20.17;;
36001;SDS011;22070;50.922;5.430;2023-08-12T04:43:07;36.80;;;21.27;;
36001;SDS011;22070;50.922;5.430;2023-08-12T04:45:33;32.75;;;20.95;;
36001;SDS011;22070;50.922;5.430;2023-08-12T04:47:59;33.20;;;19.40;;
36001;SDS011;22070;50.922;5.430;2023-08-12T04:50:25;28.80;;;19.00;;
36001;SDS011;22070;50.922;5.430;2023-08-12T04:52:54;28.02;;;16.65;;
36001;SDS011;22070;50.922;5.430;2023-08-12T04:55:20;25.37;;;15.60;;
36001;SDS011;22070;50.922;5.430;2023-08-12T04:57:45;27.67;;;15.80;;
36001;SDS011;22070;50.922;5.430;2023-08-12T05:00:11;22.43;;;14.63;;
36001;SDS011;22070;50.922;5.430;2023-08-12T05:02:37;27.45;;;13.85;;
36001;SDS011;22070;50.922;5.430;2023-08-12T05:05:03;17.37;;;11.33;;
36001;SDS011;22070;50.922;5.430;2023-08-12T05:07:29;15.65;;;10.93;;
36001;SDS011;22070;50.922;5.430;2023-08-12T05:09:56;15.95;;;10.98;;
36001;SDS011;22070;50.922;5.430;2023-08-12T05:12:22;14.97;;;9.40;;
36001;SDS011;22070;50.922;5.430;2023-08-12T05:14:47;14.03;;;8.97;;
36001;SDS011;22070;50.922;5.430;2023-08-12T05:17:13;9.23;;;7.87;;
36001;SDS011;22070;50.922;5.430;2023-08-12T05:19:39;13.53;;;8.80;;
36001;SDS011;22070;50.922;5.430;2023-08-12T05:22:04;15.50;;;8.77;;
36001;SDS011;22070;50.922;5.430;2023-08-12T05:24:30;12.30;;;8.33;;
36001;SDS011;22070;50.922;5.430;2023-08-12T05:26:55;11.17;;;6.83;;
36001;SDS011;22070;50.922;5.430;2023-08-12T05:29:21;22.80;;;7.03;;
36001;SDS011;22070;50.922;5.430;2023-08-12T05:31:47;7.50;;;6.23;;
36001;SDS011;22070;50.922;5.430;2023-08-12T05:34:12;11.47;;;6.17;;
36001;SDS011;22070;50.922;5.430;2023-08-12T05:36:38;8.83;;;6.33;;
36001;SDS011;22070;50.922;5.430;2023-08-12T05:39:04;8.90;;;5.40;;
36001;SDS011;22070;50.922;5.430;2023-08-12T05:41:29;9.77;;;5.43;;
36001;SDS011;22070;50.922;5.430;2023-08-12T05:43:55;6.50;;;5.30;;
36001;SDS011;22070;50.922;5.430;2023-08-12T05:46:21;8.57;;;4.63;;
36001;SDS011;22070;50.922;5.430;2023-08-12T05:48:46;8.57;;;5.10;;
36001;SDS011;22070;50.922;5.430;2023-08-12T05:51:12;7.17;;;4.87;;
36001;SDS011;22070;50.922;5.430;2023-08-12T05:53:38;9.87;;;5.37;;
36001;SDS011;22070;50.922;5.430;2023-08-12T05:56:03;8.15;;;5.05;;
36001;SDS011;22070;50.922;5.430;2023-08-12T05:58:29;7.83;;;4.73;;
36001;SDS011;22070;50.922;5.430;2023-08-12T06:00:55;5.73;;;4.83;;
36001;SDS011;22070;50.922;5.430;2023-08-12T06:03:20;6.70;;;5.23;;
36001;SDS011;22070;50.922;5.430;2023-08-12T06:05:47;6.93;;;4.83;;
36001;SDS011;22070;50.922;5.430;2023-08-12T06:08:13;4.25;;;3.80;;
36001;SDS011;22070;50.922;5.430;2023-08-12T06:10:39;4.07;;;3.78;;
36001;SDS011;22070;50.922;5.430;2023-08-12T06:13:05;4.40;;;3.70;;
36001;SDS011;22070;50.922;5.430;2023-08-12T06:15:30;5.77;;;3.77;;
36001;SDS011;22070;50.922;5.430;2023-08-12T06:17:56;5.60;;;3.80;;
36001;SDS011;22070;50.922;5.430;2023-08-12T06:20:23;7.23;;;3.63;;
36001;SDS011;22070;50.922;5.430;2023-08-12T06:22:49;4.20;;;3.80;;
36001;SDS011;22070;50.922;5.430;2023-08-12T06:27:42;4.25;;;3.40;;
36001;SDS011;22070;50.922;5.430;2023-08-12T06:30:08;4.05;;;3.33;;
36001;SDS011;22070;50.922;5.430;2023-08-12T06:32:35;3.30;;;3.00;;
36001;SDS011;22070;50.922;5.430;2023-08-12T06:35:01;5.25;;;3.22;;
36001;SDS011;22070;50.922;5.430;2023-08-12T06:37:27;3.15;;;2.80;;
36001;SDS011;22070;50.922;5.430;2023-08-12T06:39:53;5.77;;;3.13;;
36001;SDS011;22070;50.922;5.430;2023-08-12T06:42:20;5.05;;;2.83;;
36001;SDS011;22070;50.922;5.430;2023-08-12T06:44:46;4.68;;;2.75;;
36001;SDS011;22070;50.922;5.430;2023-08-12T06:47:14;5.65;;;3.03;;
36001;SDS011;22070;50.922;5.430;2023-08-12T06:49:40;3.53;;;2.27;;
36001;SDS011;22070;50.922;5.430;2023-08-12T06:52:06;3.40;;;2.70;;
36001;SDS011;22070;50.922;5.430;2023-08-12T06:54:32;2.40;;;2.23;;
36001;SDS011;22070;50.922;5.430;2023-08-12T06:56:57;6.63;;;2.60;;
36001;SDS011;22070;50.922;5.430;2023-08-12T06:59:23;4.33;;;2.57;;
36001;SDS011;22070;50.922;5.430;2023-08-12T07:01:48;4.20;;;2.80;;
36001;SDS011;22070;50.922;5.430;2023-08-12T07:04:14;2.80;;;2.60;;
36001;SDS011;22070;50.922;5.430;2023-08-12T07:06:40;4.03;;;2.40;;
36001;SDS011;22070;50.922;5.430;2023-08-12T07:09:05;3.83;;;2.70;;
36001;SDS011;22070;50.922;5.430;2023-08-12T07:11:31;2.67;;;2.47;;
36001;SDS011;22070;50.922;5.430;2023-08-12T07:13:57;2.50;;;2.30;;
36001;SDS011;22070;50.922;5.430;2023-08-12T07:16:22;3.40;;;2.10;;
36001;SDS011;22070;50.922;5.430;2023-08-12T07:18:48;2.60;;;2.40;;
36001;SDS011;22070;50.922;5.430;2023-08-12T07:21:13;5.50;;;4.20;;
36001;SDS011;22070;50.922;5.430;2023-08-12T07:23:39;3.27;;;2.20;;
36001;SDS011;22070;50.922;5.430;2023-08-12T07:28:32;2.10;;;2.00;;
36001;SDS011;22070;50.922;5.430;2023-08-12T07:30:59;4.23;;;1.60;;
36001;SDS011;22070;50.922;5.430;2023-08-12T07:33:26;2.20;;;2.00;;
36001;SDS011;22070;50.922;5.430;2023-08-12T07:35:51;2.20;;;1.90;;
36001;SDS011;22070;50.922;5.430;2023-08-12T07:38:17;2.03;;;1.93;;
36001;SDS011;22070;50.922;5.430;2023-08-12T07:40:43;2.80;;;1.57;;
36001;SDS011;22070;50.922;5.430;2023-08-12T07:43:09;2.77;;;1.87;;
36001;SDS011;22070;50.922;5.430;2023-08-12T07:45:35;3.53;;;1.70;;
36001;SDS011;22070;50.922;5.430;2023-08-12T07:48:00;2.53;;;2.10;;
36001;SDS011;22070;50.922;5.430;2023-08-12T07:50:26;2.07;;;1.30;;
36001;SDS011;22070;50.922;5.430;2023-08-12T07:52:52;1.43;;;1.30;;
36001;SDS011;22070;50.922;5.430;2023-08-12T07:55:18;1.70;;;1.43;;
36001;SDS011;22070;50.922;5.430;2023-08-12T07:57:44;2.60;;;1.20;;
36001;SDS011;22070;50.922;5.430;2023-08-12T08:00:10;1.92;;;0.98;;
36001;SDS011;22070;50.922;5.430;2023-08-12T08:02:37;0.90;;;0.88;;
36001;SDS011;22070;50.922;5.430;2023-08-12T08:05:03;2.08;;;0.70;;
36001;SDS011;22070;50.922;5.430;2023-08-12T08:07:29;0.90;;;0.90;;
36001;SDS011;22070;50.922;5.430;2023-08-12T08:09:55;0.70;;;0.70;;
36001;SDS011;22070;50.922;5.430;2023-08-12T08:12:21;1.10;;;0.80;;
36001;SDS011;22070;50.922;5.430;2023-08-12T08:14:46;2.53;;;0.73;;
36001;SDS011;22070;50.922;5.430;2023-08-12T08:17:12;1.53;;;0.60;;
36001;SDS011;22070;50.922;5.430;2023-08-12T08:19:37;0.60;;;0.60;;
36001;SDS011;22070;50.922;5.430;2023-08-12T08:22:03;1.60;;;0.50;;
36001;SDS011;22070;50.922;5.430;2023-08-12T08:24:29;1.70;;;0.60;;
36001;SDS011;22070;50.922;5.430;2023-08-12T08:26:55;1.13;;;0.53;;
36001;SDS011;22070;50.922;5.430;2023-08-12T08:29:20;0.47;;;0.40;;
36001;SDS011;22070;50.922;5.430;2023-08-12T08:31:46;0.50;;;0.50;;
36001;SDS011;22070;50.922;5.430;2023-08-12T08:34:12;0.93;;;0.60;;
36001;SDS011;22070;50.922;5.430;2023-08-12T08:36:38;0.63;;;0.63;;
36001;SDS011;22070;50.922;5.430;2023-08-12T08:39:03;0.87;;;0.57;;
36001;SDS011;22070;50.922;5.430;2023-08-12T08:41:30;0.50;;;0.50;;
36001;SDS011;22070;50.922;5.430;2023-08-12T08:43:58;0.88;;;0.50;;
36001;SDS011;22070;50.922;5.430;2023-08-12T08:46:28;0.52;;;0.50;;
36001;SDS011;22070;50.922;5.430;2023-08-12T08:48:55;1.48;;;0.70;;
36001;SDS011;22070;50.922;5.430;2023-08-12T08:51:23;1.10;;;0.40;;
36001;SDS011;22070;50.922;5.430;2023-08-12T08:53:50;0.68;;;0.40;;
36001;SDS011;22070;50.922;5.430;2023-08-12T08:56:19;1.02;;;0.50;;
36001;SDS011;22070;50.922;5.430;2023-08-12T08:58:46;0.40;;;0.40;;
36001;SDS011;22070;50.922;5.430;2023-08-12T09:01:11;0.40;;;0.40;;
36001;SDS011;22070;50.922;5.430;2023-08-12T09:03:39;0.52;;;0.50;;
36001;SDS011;22070;50.922;5.430;2023-08-12T09:06:06;0.30;;;0.30;;
36001;SDS011;22070;50.922;5.430;2023-08-12T09:08:32;0.50;;;0.50;;
36001;SDS011;22070;50.922;5.430;2023-08-12T09:10:59;2.55;;;0.50;;
36001;SDS011;22070;50.922;5.430;2023-08-12T09:13:25;0.60;;;0.60;;
36001;SDS011;22070;50.922;5.430;2023-08-12T09:15:51;3.30;;;0.50;;
36001;SDS011;22070;50.922;5.430;2023-08-12T09:18:17;1.63;;;0.50;;
36001;SDS011;22070;50.922;5.430;2023-08-12T09:20:43;0.40;;;0.40;;
36001;SDS011;22070;50.922;5.430;2023-08-12T09:23:09;4.07;;;0.55;;
36001;SDS011;22070;50.922;5.430;2023-08-12T09:25:41;0.50;;;0.50;;
36001;SDS011;22070;50.922;5.430;2023-08-12T09:28:09;3.47;;;0.60;;
36001;SDS011;22070;50.922;5.430;2023-08-12T09:30:35;0.93;;;0.60;;
36001;SDS011;22070;50.922;5.430;2023-08-12T09:33:02;0.53;;;0.53;;
36001;SDS011;22070;50.922;5.430;2023-08-12T09:38:03;0.70;;;0.70;;
36001;SDS011;22070;50.922;5.430;2023-08-12T09:40:30;0.50;;;0.50;;
36001;SDS011;22070;50.922;5.430;2023-08-12T09:43:00;1.95;;;0.77;;
36001;SDS011;22070;50.922;5.430;2023-08-12T09:45:26;0.57;;;0.57;;
36001;SDS011;22070;50.922;5.430;2023-08-12T09:47:52;1.47;;;0.67;;
36001;SDS011;22070;50.922;5.430;2023-08-12T09:50:22;2.10;;;0.90;;
36001;SDS011;22070;50.922;5.430;2023-08-12T09:52:49;1.42;;;0.90;;
36001;SDS011;22070;50.922;5.430;2023-08-12T09:55:16;0.80;;;0.70;;
36001;SDS011;22070;50.922;5.430;2023-08-12T09:57:43;0.90;;;0.70;;
36001;SDS011;22070;50.922;5.430;2023-08-12T10:00:12;1.73;;;0.98;;
36001;SDS011;22070;50.922;5.430;2023-08-12T10:02:43;0.80;;;0.68;;
36001;SDS011;22070;50.922;5.430;2023-08-12T10:05:11;0.50;;;0.50;;
36001;SDS011;22070;50.922;5.430;2023-08-12T10:07:40;0.43;;;0.43;;
36001;SDS011;22070;50.922;5.430;2023-08-12T10:10:06;1.30;;;0.60;;
36001;SDS011;22070;50.922;5.430;2023-08-12T10:12:34;0.90;;;0.70;;
36001;SDS011;22070;50.922;5.430;2023-08-12T10:15:01;0.77;;;0.40;;
36001;SDS011;22070;50.922;5.430;2023-08-12T10:17:30;1.25;;;0.40;;
36001;SDS011;22070;50.922;5.430;2023-08-12T10:19:56;0.30;;;0.30;;
36001;SDS011;22070;50.922;5.430;2023-08-12T10:24:50;0.77;;;0.60;;
36001;SDS011;22070;50.922;5.430;2023-08-12T10:27:16;1.93;;;1.03;;
36001;SDS011;22070;50.922;5.430;2023-08-12T10:29:43;1.90;;;0.73;;
36001;SDS011;22070;50.922;5.430;2023-08-12T10:32:10;1.23;;;0.70;;
36001;SDS011;22070;50.922;5.430;2023-08-12T10:34:38;0.60;;;0.60;;
36001;SDS011;22070;50.922;5.430;2023-08-12T10:37:03;0.93;;;0.80;;
36001;SDS011;22070;50.922;5.430;2023-08-12T10:39:32;1.00;;;0.80;;
36001;SDS011;22070;50.922;5.430;2023-08-12T10:41:59;1.75;;;0.50;;
36001;SDS011;22070;50.922;5.430;2023-08-12T10:45:07;1.20;;;0.70;;
36001;SDS011;22070;50.922;5.430;2023-08-12T10:47:15;0.93;;;0.70;;
36001;SDS011;22070;50.922;5.430;2023-08-12T10:49:48;0.70;;;0.70;;
36001;SDS011;22070;50.922;5.430;2023-08-12T10:52:27;3.25;;;0.93;;
36001;SDS011;22070;50.922;5.430;2023-08-12T10:54:54;0.80;;;0.80;;
36001;SDS011;22070;50.922;5.430;2023-08-12T10:57:34;1.03;;;0.90;;
36001;SDS011;22070;50.922;5.430;2023-08-12T11:00:03;1.05;;;1.05;;
36001;SDS011;22070;50.922;5.430;2023-08-12T11:02:33;1.40;;;1.17;;
36001;SDS011;22070;50.922;5.430;2023-08-12T11:05:03;1.45;;;1.27;;
36001;SDS011;22070;50.922;5.430;2023-08-12T11:07:38;1.20;;;1.10;;
36001;SDS011;22070;50.922;5.430;2023-08-12T11:12:39;1.52;;;1.42;;
36001;SDS011;22070;50.922;5.430;2023-08-12T11:15:06;1.77;;;1.67;;
36001;SDS011;22070;50.922;5.430;2023-08-12T11:17:36;3.45;;;1.95;;
36001;SDS011;22070;50.922;5.430;2023-08-12T11:20:04;2.20;;;2.00;;
36001;SDS011;22070;50.922;5.430;2023-08-12T11:22:32;2.08;;;1.90;;
36001;SDS011;22070;50.922;5.430;2023-08-12T11:25:02;1.73;;;1.63;;
36001;SDS011;22070;50.922;5.430;2023-08-12T11:27:40;2.38;;;2.10;;
36001;SDS011;22070;50.922;5.430;2023-08-12T11:30:07;2.15;;;1.73;;
36001;SDS011;22070;50.922;5.430;2023-08-12T11:32:35;2.88;;;1.90;;
36001;SDS011;22070;50.922;5.430;2023-08-12T11:35:03;2.17;;;1.83;;
36001;SDS011;22070;50.922;5.430;2023-08-12T11:37:30;1.45;;;1.23;;
36001;SDS011;22070;50.922;5.430;2023-08-12T11:39:56;3.83;;;1.60;;
36001;SDS011;22070;50.922;5.430;2023-08-12T11:42:22;1.47;;;1.37;;
36001;SDS011;22070;50.922;5.430;2023-08-12T11:44:48;1.40;;;1.10;;
36001;SDS011;22070;50.922;5.430;2023-08-12T11:47:13;1.33;;;0.90;;
36001;SDS011;22070;50.922;5.430;2023-08-12T11:49:39;0.90;;;0.80;;
36001;SDS011;22070;50.922;5.430;2023-08-12T11:52:04;2.13;;;1.30;;
36001;SDS011;22070;50.922;5.430;2023-08-12T11:54:31;1.45;;;1.15;;
36001;SDS011;22070;50.922;5.430;2023-08-12T11:56:58;1.25;;;1.05;;
36001;SDS011;22070;50.922;5.430;2023-08-12T11:59:24;4.38;;;1.30;;
36001;SDS011;22070;50.922;5.430;2023-08-12T12:01:51;3.35;;;1.40;;
36001;SDS011;22070;50.922;5.430;2023-08-12T12:04:17;2.50;;;1.40;;
36001;SDS011;22070;50.922;5.430;2023-08-12T12:06:45;2.70;;;0.90;;
36001;SDS011;22070;50.922;5.430;2023-08-12T12:09:11;2.53;;;1.13;;
36001;SDS011;22070;50.922;5.430;2023-08-12T12:11:38;2.90;;;1.38;;
36001;SDS011;22070;50.922;5.430;2023-08-12T12:14:07;2.83;;;1.52;;
36001;SDS011;22070;50.922;5.430;2023-08-12T12:16:39;2.50;;;1.30;;
36001;SDS011;22070;50.922;5.430;2023-08-12T12:21:45;0.95;;;0.93;;
36001;SDS011;22070;50.922;5.430;2023-08-12T12:24:12;2.58;;;0.90;;
36001;SDS011;22070;50.922;5.430;2023-08-12T12:26:38;2.88;;;0.93;;
36001;SDS011;22070;50.922;5.430;2023-08-12T12:29:04;3.20;;;0.80;;
36001;SDS011;22070;50.922;5.430;2023-08-12T12:31:34;5.45;;;1.00;;
36001;SDS011;22070;50.922;5.430;2023-08-12T12:34:03;2.15;;;1.10;;
36001;SDS011;22070;50.922;5.430;2023-08-12T12:36:30;2.58;;;1.13;;
36001;SDS011;22070;50.922;5.430;2023-08-12T12:41:22;3.17;;;1.08;;
36001;SDS011;22070;50.922;5.430;2023-08-12T12:43:48;2.13;;;1.15;;
36001;SDS011;22070;50.922;5.430;2023-08-12T12:46:14;2.08;;;1.08;;
36001;SDS011;22070;50.922;5.430;2023-08-12T12:48:40;1.42;;;1.02;;
36001;SDS011;22070;50.922;5.430;2023-08-12T12:51:07;2.83;;;1.30;;
36001;SDS011;22070;50.922;5.430;2023-08-12T12:53:32;2.80;;;1.10;;
36001;SDS011;22070;50.922;5.430;2023-08-12T12:55:59;3.10;;;1.10;;
36001;SDS011;22070;50.922;5.430;2023-08-12T12:58:30;4.00;;;1.23;;
36001;SDS011;22070;50.922;5.430;2023-08-12T13:00:57;4.18;;;1.10;;
36001;SDS011;22070;50.922;5.430;2023-08-12T13:03:22;3.97;;;0.90;;
36001;SDS011;22070;50.922;5.430;2023-08-12T13:05:49;6.03;;;1.60;;
36001;SDS011;22070;50.922;5.430;2023-08-12T13:08:15;5.45;;;1.30;;
36001;SDS011;22070;50.922;5.430;2023-08-12T13:10:41;4.90;;;1.13;;
36001;SDS011;22070;50.922;5.430;2023-08-12T13:13:06;4.13;;;1.10;;
36001;SDS011;22070;50.922;5.430;2023-08-12T13:15:32;6.23;;;1.30;;
36001;SDS011;22070;50.922;5.430;2023-08-12T13:17:58;2.90;;;1.10;;
36001;SDS011;22070;50.922;5.430;2023-08-12T13:20:23;2.77;;;1.00;;
36001;SDS011;22070;50.922;5.430;2023-08-12T13:22:49;2.53;;;1.20;;
36001;SDS011;22070;50.922;5.430;2023-08-12T13:25:15;6.03;;;1.60;;
36001;SDS011;22070;50.922;5.430;2023-08-12T13:27:41;3.07;;;1.20;;
36001;SDS011;22070;50.922;5.430;2023-08-12T13:30:08;5.80;;;1.20;;
36001;SDS011;22070;50.922;5.430;2023-08-12T13:32:36;2.47;;;1.10;;
36001;SDS011;22070;50.922;5.430;2023-08-12T13:35:02;2.83;;;1.10;;
36001;SDS011;22070;50.922;5.430;2023-08-12T13:37:28;8.05;;;1.60;;
36001;SDS011;22070;50.922;5.430;2023-08-12T13:39:53;3.20;;;1.10;;
36001;SDS011;22070;50.922;5.430;2023-08-12T13:42:19;5.20;;;1.43;;
36001;SDS011;22070;50.922;5.430;2023-08-12T13:44:44;4.63;;;0.83;;
36001;SDS011;22070;50.922;5.430;2023-08-12T13:47:10;4.07;;;1.13;;
36001;SDS011;22070;50.922;5.430;2023-08-12T13:49:36;2.73;;;1.10;;
36001;SDS011;22070;50.922;5.430;2023-08-12T13:52:01;5.70;;;1.20;;
36001;SDS011;22070;50.922;5.430;2023-08-12T13:54:27;7.88;;;1.60;;
36001;SDS011;22070;50.922;5.430;2023-08-12T13:56:53;3.40;;;1.40;;
36001;SDS011;22070;50.922;5.430;2023-08-12T13:59:18;2.37;;;1.50;;
36001;SDS011;22070;50.922;5.430;2023-08-12T14:01:45;3.80;;;1.33;;
36001;SDS011;22070;50.922;5.430;2023-08-12T14:04:10;4.33;;;1.30;;
36001;SDS011;22070;50.922;5.430;2023-08-12T14:06:36;6.10;;;1.63;;
36001;SDS011;22070;50.922;5.430;2023-08-12T14:09:02;3.03;;;1.13;;
36001;SDS011;22070;50.922;5.430;2023-08-12T14:11:28;3.03;;;1.37;;
36001;SDS011;22070;50.922;5.430;2023-08-12T14:13:53;5.80;;;1.43;;
36001;SDS011;22070;50.922;5.430;2023-08-12T14:16:22;3.50;;;1.40;;
36001;SDS011;22070;50.922;5.430;2023-08-12T14:18:47;3.10;;;1.10;;
36001;SDS011;22070;50.922;5.430;2023-08-12T14:21:13;2.57;;;1.00;;
36001;SDS011;22070;50.922;5.430;2023-08-12T14:23:38;3.63;;;1.20;;
36001;SDS011;22070;50.922;5.430;2023-08-12T14:26:04;2.97;;;1.33;;
36001;SDS011;22070;50.922;5.430;2023-08-12T14:28:30;4.80;;;1.17;;
36001;SDS011;22070;50.922;5.430;2023-08-12T14:30:55;3.50;;;1.27;;
36001;SDS011;22070;50.922;5.430;2023-08-12T14:33:21;4.27;;;1.30;;
36001;SDS011;22070;50.922;5.430;2023-08-12T14:35:49;3.72;;;1.23;;
36001;SDS011;22070;50.922;5.430;2023-08-12T14:38:16;3.70;;;1.30;;
36001;SDS011;22070;50.922;5.430;2023-08-12T14:40:42;4.63;;;1.67;;
36001;SDS011;22070;50.922;5.430;2023-08-12T14:43:11;3.38;;;1.40;;
36001;SDS011;22070;50.922;5.430;2023-08-12T14:45:37;3.45;;;1.40;;
36001;SDS011;22070;50.922;5.430;2023-08-12T14:48:02;4.17;;;1.40;;
36001;SDS011;22070;50.922;5.430;2023-08-12T14:50:28;3.00;;;1.40;;
36001;SDS011;22070;50.922;5.430;2023-08-12T14:52:53;3.77;;;1.50;;
36001;SDS011;22070;50.922;5.430;2023-08-12T14:55:20;2.92;;;1.60;;
36001;SDS011;22070;50.922;5.430;2023-08-12T14:57:46;2.67;;;1.30;;
36001;SDS011;22070;50.922;5.430;2023-08-12T15:00:12;4.23;;;1.87;;
36001;SDS011;22070;50.922;5.430;2023-08-12T15:02:38;3.78;;;1.50;;
36001;SDS011;22070;50.922;5.430;2023-08-12T15:05:03;2.87;;;1.37;;